createdAt,value
2022-11-16T00:01:05.868Z,10.81
2022-11-16T00:03:33.481Z,10.97
2022-11-16T00:06:02.669Z,10.81
2022-11-16T00:08:31.366Z,10.73
2022-11-16T00:11:09.760Z,10.70
2022-11-16T00:13:37.273Z,10.70
2022-11-16T00:16:05.228Z,10.71
2022-11-16T00:18:32.383Z,10.65
2022-11-16T00:20:59.262Z,10.76
2022-11-16T00:23:25.726Z,10.88
2022-11-16T00:25:53.206Z,10.68
2022-11-16T00:28:19.996Z,10.55
2022-11-16T00:30:46.490Z,10.65
2022-11-16T00:33:16.328Z,10.60
2022-11-16T00:35:42.801Z,10.57
2022-11-16T00:38:09.570Z,10.61
2022-11-16T00:40:36.003Z,10.56
2022-11-16T00:47:16.149Z,10.72
2022-11-16T00:49:42.624Z,10.64
2022-11-16T00:52:09.347Z,10.60
2022-11-16T00:54:36.008Z,10.54
2022-11-16T00:57:06.110Z,10.48
2022-11-16T00:59:32.794Z,10.51
2022-11-16T01:01:59.302Z,10.47
2022-11-16T01:04:25.839Z,10.47
2022-11-16T01:06:52.528Z,10.56
2022-11-16T01:09:19.037Z,10.45
2022-11-16T01:12:06.327Z,10.52
2022-11-16T01:14:32.792Z,10.51
2022-11-16T01:17:00.035Z,10.56
2022-11-16T01:19:28.763Z,10.49
2022-11-16T01:21:55.338Z,10.61
2022-11-16T01:24:23.089Z,10.42
2022-11-16T01:26:50.019Z,10.34
2022-11-16T01:29:17.836Z,10.38
2022-11-16T01:31:50.537Z,10.34
2022-11-16T01:34:17.286Z,10.49
2022-11-16T01:36:44.444Z,10.34
2022-11-16T01:39:15.999Z,10.50
2022-11-16T01:41:47.756Z,10.49
2022-11-16T01:44:14.952Z,10.41
2022-11-16T01:46:53.848Z,10.38
2022-11-16T01:49:24.168Z,10.38
2022-11-16T01:51:59.509Z,10.31
2022-11-16T01:54:29.312Z,10.44
2022-11-16T01:57:02.765Z,10.30
2022-11-16T01:59:35.090Z,10.26
2022-11-16T02:02:02.777Z,10.42
2022-11-16T02:04:30.147Z,10.30
2022-11-16T02:07:23.333Z,10.30
2022-11-16T02:10:12.266Z,10.33
2022-11-16T02:12:44.962Z,10.18
2022-11-16T02:15:27.988Z,10.14
2022-11-16T02:18:18.786Z,10.19
2022-11-16T02:21:30.094Z,10.09
2022-11-16T02:24:13.400Z,9.98
2022-11-16T02:26:55.700Z,9.99
2022-11-16T02:29:37.906Z,10.13
2022-11-16T02:32:44.019Z,9.92
2022-11-16T02:35:16.945Z,9.91
2022-11-16T02:37:48.591Z,9.85
2022-11-16T02:40:17.949Z,9.87
2022-11-16T02:42:57.979Z,9.84
2022-11-16T02:45:32.774Z,9.91
2022-11-16T02:48:13.175Z,9.92
2022-11-16T02:50:40.790Z,9.78
2022-11-16T02:53:08.907Z,9.88
2022-11-16T02:55:36.683Z,9.77
2022-11-16T02:58:09.780Z,9.89
2022-11-16T03:00:46.690Z,9.70
2022-11-16T03:03:28.551Z,9.77
2022-11-16T03:06:00.252Z,9.69
2022-11-16T03:08:38.162Z,9.63
2022-11-16T03:11:27.140Z,9.59
2022-11-16T03:13:59.288Z,9.63
2022-11-16T03:16:34.927Z,9.60
2022-11-16T03:19:07.969Z,9.52
2022-11-16T03:21:58.142Z,9.58
2022-11-16T03:24:25.377Z,9.45
2022-11-16T03:26:54.993Z,9.37
2022-11-16T03:29:42.534Z,9.39
2022-11-16T03:32:27.339Z,9.48
2022-11-16T03:35:03.283Z,9.39
2022-11-16T03:37:31.920Z,9.45
2022-11-16T03:40:01.879Z,9.52
2022-11-16T03:42:32.970Z,9.36
2022-11-16T03:45:00.335Z,9.30
2022-11-16T03:47:27.300Z,9.31
2022-11-16T03:49:53.801Z,9.24
2022-11-16T03:52:22.996Z,9.20
2022-11-16T03:54:50.518Z,9.30
2022-11-16T03:57:18.530Z,9.25
2022-11-16T03:59:50.555Z,9.22
2022-11-16T04:02:17.387Z,9.34
2022-11-16T04:05:03.556Z,9.20
2022-11-16T04:07:48.966Z,9.25
2022-11-16T04:10:34.253Z,9.20
2022-11-16T04:13:21.704Z,9.08
2022-11-16T04:16:06.985Z,9.18
2022-11-16T04:18:52.215Z,9.18
2022-11-16T04:21:44.152Z,9.09
2022-11-16T04:24:26.364Z,9.06
2022-11-16T04:27:19.341Z,9.14
2022-11-16T04:29:46.233Z,9.01
2022-11-16T04:32:31.562Z,9.05
2022-11-16T04:35:17.081Z,9.00
2022-11-16T04:37:52.419Z,9.09
2022-11-16T04:40:29.553Z,9.11
2022-11-16T04:42:59.026Z,9.06
2022-11-16T04:45:47.263Z,9.08
2022-11-16T04:48:17.961Z,9.14
2022-11-16T04:50:45.604Z,9.01
2022-11-16T04:53:12.843Z,8.92
2022-11-16T04:55:45.387Z,8.85
2022-11-16T04:58:13.829Z,8.93
2022-11-16T05:00:40.501Z,8.95
2022-11-16T05:03:07.896Z,9.03
2022-11-16T05:05:35.244Z,8.97
2022-11-16T05:08:01.938Z,8.99
2022-11-16T05:10:31.052Z,8.92
2022-11-16T05:12:57.687Z,8.89
2022-11-16T05:15:25.223Z,8.93
2022-11-16T05:17:55.650Z,8.90
2022-11-16T05:20:43.256Z,8.86
2022-11-16T05:23:29.815Z,8.82
2022-11-16T05:26:00.333Z,8.77
2022-11-16T05:28:29.171Z,8.87
2022-11-16T05:30:56.200Z,8.79
2022-11-16T05:33:24.094Z,8.84
2022-11-16T05:35:51.679Z,8.81
2022-11-16T05:38:19.563Z,8.83
2022-11-16T05:40:49.949Z,8.77
2022-11-16T05:43:17.431Z,8.67
2022-11-16T05:45:53.714Z,8.72
2022-11-16T05:48:20.695Z,8.78
2022-11-16T05:50:48.647Z,8.68
2022-11-16T05:53:22.151Z,8.69
2022-11-16T05:55:48.898Z,8.72
2022-11-16T05:58:16.816Z,8.65
2022-11-16T06:00:46.573Z,8.62
2022-11-16T06:03:13.530Z,8.61
2022-11-16T06:05:40.960Z,8.57
2022-11-16T06:08:09.698Z,8.46
2022-11-16T06:10:36.975Z,8.47
2022-11-16T06:13:04.280Z,8.55
2022-11-16T06:15:30.828Z,8.46
2022-11-16T06:17:57.955Z,8.43
2022-11-16T06:20:24.964Z,8.42
2022-11-16T06:22:53.008Z,8.37
2022-11-16T06:25:19.997Z,8.40
2022-11-16T06:27:46.657Z,8.32
2022-11-16T06:30:16.391Z,8.35
2022-11-16T06:32:44.729Z,8.26
2022-11-16T06:35:11.451Z,8.37
2022-11-16T06:37:38.854Z,8.26
2022-11-16T06:40:07.241Z,8.33
2022-11-16T06:42:36.768Z,8.24
2022-11-16T06:45:03.810Z,8.16
2022-11-16T06:47:36.006Z,8.23
2022-11-16T06:50:02.830Z,8.16
2022-11-16T06:52:29.995Z,8.14
2022-11-16T06:54:57.465Z,8.10
2022-11-16T06:57:23.988Z,8.10
2022-11-16T06:59:50.942Z,8.03
2022-11-16T07:02:20.415Z,8.16
2022-11-16T07:04:48.062Z,8.14
2022-11-16T07:07:18.226Z,8.03
2022-11-16T07:09:45.612Z,8.07
2022-11-16T07:12:14.152Z,8.09
2022-11-16T07:14:41.516Z,8.09
2022-11-16T07:17:09.993Z,8.01
2022-11-16T07:19:37.304Z,8.00
2022-11-16T07:22:06.737Z,8.01
2022-11-16T07:24:33.464Z,8.01
2022-11-16T07:26:59.951Z,8.02
2022-11-16T07:29:31.290Z,7.96
2022-11-16T07:32:09.909Z,7.90
2022-11-16T07:34:55.795Z,8.01
2022-11-16T07:37:24.525Z,7.98
2022-11-16T07:39:51.430Z,8.02
2022-11-16T07:42:18.049Z,8.06
2022-11-16T07:45:07.624Z,7.93
2022-11-16T07:47:39.122Z,7.98
2022-11-16T07:50:10.985Z,7.93
2022-11-16T07:52:37.937Z,7.97
2022-11-16T07:55:07.501Z,8.00
2022-11-16T07:57:35.073Z,7.96
2022-11-16T08:00:06.532Z,7.89
2022-11-16T08:02:47.592Z,7.89
2022-11-16T08:05:18.300Z,7.82
2022-11-16T08:07:46.108Z,7.84
2022-11-16T08:10:13.019Z,7.84
2022-11-16T08:12:40.269Z,7.76
2022-11-16T08:15:08.454Z,7.77
2022-11-16T08:17:34.959Z,7.74
2022-11-16T08:20:04.298Z,7.68
2022-11-16T08:22:30.788Z,7.57
2022-11-16T08:24:57.535Z,7.55
2022-11-16T08:27:25.328Z,7.58
2022-11-16T08:29:54.283Z,7.59
2022-11-16T08:32:21.005Z,7.58
2022-11-16T08:34:48.158Z,7.47
2022-11-16T08:37:14.936Z,7.60
2022-11-16T08:39:44.064Z,7.49
2022-11-16T08:42:10.903Z,7.50
2022-11-16T08:44:38.802Z,7.51
2022-11-16T08:47:09.977Z,7.46
2022-11-16T08:49:43.983Z,7.45
2022-11-16T08:52:15.232Z,7.58
2022-11-16T08:54:42.975Z,7.49
2022-11-16T08:57:11.100Z,7.55
2022-11-16T08:59:39.354Z,7.43
2022-11-16T09:02:10.717Z,7.40
2022-11-16T09:04:37.545Z,7.39
2022-11-16T09:07:04.391Z,7.37
2022-11-16T09:09:30.953Z,7.19
2022-11-16T09:11:57.453Z,7.22
2022-11-16T09:14:23.927Z,7.27
2022-11-16T09:16:50.594Z,7.30
2022-11-16T09:19:17.651Z,7.28
2022-11-16T09:21:45.684Z,7.25
2022-11-16T09:24:12.206Z,7.15
2022-11-16T09:26:38.664Z,7.14
2022-11-16T09:29:05.164Z,7.14
2022-11-16T09:31:34.659Z,7.08
2022-11-16T09:34:01.298Z,7.08
2022-11-16T09:36:28.719Z,7.00
2022-11-16T09:39:29.518Z,7.02
2022-11-16T09:42:00.140Z,7.03
2022-11-16T09:44:53.373Z,6.88
2022-11-16T09:47:22.278Z,6.89
2022-11-16T09:49:59.895Z,6.93
2022-11-16T09:52:41.382Z,6.98
2022-11-16T09:55:36.954Z,6.87
2022-11-16T09:58:16.343Z,6.88
2022-11-16T10:00:49.988Z,6.81
2022-11-16T10:03:16.706Z,6.87
2022-11-16T10:06:11.479Z,6.95
2022-11-16T10:08:46.725Z,6.83
2022-11-16T10:11:23.960Z,6.84
2022-11-16T10:14:05.229Z,6.77
2022-11-16T10:16:47.015Z,6.78
2022-11-16T10:19:22.441Z,6.82
2022-11-16T10:21:58.026Z,6.73
2022-11-16T10:24:53.605Z,6.79
2022-11-16T10:27:32.864Z,6.94
2022-11-16T10:30:08.850Z,6.88
2022-11-16T10:32:46.268Z,6.96
2022-11-16T10:35:12.750Z,6.99
2022-11-16T10:37:47.747Z,6.92
2022-11-16T10:40:38.824Z,6.83
2022-11-16T10:43:14.742Z,6.81
2022-11-16T10:45:57.965Z,6.87
2022-11-16T10:48:49.081Z,6.89
2022-11-16T10:51:15.620Z,6.80
2022-11-16T10:53:46.338Z,6.83
2022-11-16T10:56:19.653Z,6.85
2022-11-16T10:59:10.357Z,6.90
2022-11-16T11:01:41.166Z,6.89
2022-11-16T11:04:25.260Z,6.90
2022-11-16T11:06:54.833Z,6.94
2022-11-16T11:09:28.718Z,7.01
2022-11-16T11:12:31.581Z,7.07
2022-11-16T11:14:59.890Z,7.04
2022-11-16T11:17:26.495Z,7.07
2022-11-16T11:19:58.786Z,6.97
2022-11-16T11:22:25.588Z,7.04
2022-11-16T11:24:52.921Z,6.90
2022-11-16T11:27:27.143Z,6.89
2022-11-16T11:29:58.550Z,6.92
2022-11-16T11:32:38.281Z,7.01
2022-11-16T11:35:06.646Z,7.02
2022-11-16T11:37:36.083Z,7.10
2022-11-16T11:40:10.496Z,7.07
2022-11-16T11:42:42.920Z,6.95
2022-11-16T11:45:15.402Z,7.06
2022-11-16T11:47:59.818Z,7.04
2022-11-16T11:50:38.847Z,7.16
2022-11-16T11:53:21.244Z,7.16
2022-11-16T11:55:52.320Z,7.14
2022-11-16T11:58:19.742Z,7.21
2022-11-16T12:01:05.975Z,7.23
2022-11-16T12:04:16.751Z,7.33
2022-11-16T12:07:28.289Z,7.33
2022-11-16T12:10:16.578Z,7.39
2022-11-16T12:13:03.428Z,7.45
2022-11-16T12:15:48.041Z,7.30
2022-11-16T12:18:56.557Z,7.25
2022-11-16T12:21:44.516Z,7.39
2022-11-16T12:24:24.214Z,7.32
2022-11-16T12:27:05.724Z,7.25
2022-11-16T12:29:45.012Z,7.25
2022-11-16T12:32:34.075Z,7.33
2022-11-16T12:35:22.246Z,7.30
2022-11-16T12:38:02.592Z,7.28
2022-11-16T12:40:37.898Z,7.18
2022-11-16T12:43:38.239Z,7.17
2022-11-16T12:46:43.687Z,7.22
2022-11-16T12:49:16.512Z,7.21
2022-11-16T12:51:56.206Z,7.22
2022-11-16T12:55:19.221Z,7.20
2022-11-16T12:57:58.778Z,7.03
2022-11-16T13:00:26.665Z,7.11
2022-11-16T13:03:11.773Z,7.09
2022-11-16T13:06:00.248Z,7.12
2022-11-16T13:08:56.497Z,7.04
2022-11-16T13:11:30.514Z,7.00
2022-11-16T13:14:01.295Z,6.92
2022-11-16T13:16:29.233Z,6.94
2022-11-16T13:18:56.571Z,6.97
2022-11-16T13:22:03.626Z,6.80
2022-11-16T13:24:40.653Z,6.77
2022-11-16T13:27:25.746Z,6.87
2022-11-16T13:29:58.747Z,6.81
2022-11-16T13:32:28.268Z,6.88
2022-11-16T13:34:55.575Z,6.84
2022-11-16T13:37:34.122Z,6.91
2022-11-16T13:40:02.966Z,6.83
2022-11-16T13:42:31.861Z,6.90
2022-11-16T13:45:21.529Z,6.84
2022-11-16T13:47:53.878Z,6.92
2022-11-16T13:50:33.131Z,6.96
2022-11-16T13:54:43.184Z,6.97
2022-11-16T13:56:03.170Z,6.81
2022-11-16T13:58:31.497Z,6.81
2022-11-16T14:01:17.322Z,6.81
2022-11-16T14:03:51.574Z,6.76
2022-11-16T14:06:24.280Z,6.78
2022-11-16T14:08:55.971Z,6.83
2022-11-16T14:11:39.514Z,6.87
2022-11-16T14:14:10.637Z,6.82
2022-11-16T14:16:44.813Z,6.84
2022-11-16T14:19:47.604Z,6.93
2022-11-16T14:22:44.488Z,6.99
2022-11-16T14:25:57.639Z,6.93
2022-11-16T14:28:32.959Z,6.84
2022-11-16T14:31:17.051Z,6.78
2022-11-16T14:33:49.978Z,6.71
2022-11-16T14:36:17.095Z,6.74
2022-11-16T14:38:44.836Z,6.71
2022-11-16T14:41:23.040Z,6.76
2022-11-16T14:43:53.596Z,6.82
2022-11-16T14:46:26.879Z,6.77
2022-11-16T14:48:55.942Z,6.79
2022-11-16T14:51:36.836Z,6.71
2022-11-16T14:54:16.560Z,6.76
2022-11-16T14:57:02.626Z,6.74
2022-11-16T14:59:31.124Z,6.78
2022-11-16T15:02:04.976Z,6.83
2022-11-16T15:04:31.858Z,6.96
2022-11-16T15:07:02.230Z,6.89
2022-11-16T15:09:37.709Z,6.98
2022-11-16T15:12:24.974Z,6.89
2022-11-16T15:14:54.741Z,6.88
2022-11-16T15:17:27.204Z,6.99
2022-11-16T15:19:59.238Z,6.91
2022-11-16T15:22:31.626Z,6.92
2022-11-16T15:25:00.199Z,6.91
2022-11-16T15:27:37.909Z,6.90
2022-11-16T15:30:14.595Z,6.93
2022-11-16T15:32:46.278Z,6.92
2022-11-16T15:35:19.985Z,7.01
2022-11-16T15:37:46.869Z,6.92
2022-11-16T15:40:14.537Z,6.91
2022-11-16T15:42:42.155Z,6.84
2022-11-16T15:45:24.114Z,6.86
2022-11-16T15:47:53.712Z,6.91
2022-11-16T15:50:23.483Z,7.00
2022-11-16T15:52:55.368Z,6.94
2022-11-16T15:55:23.916Z,6.82
2022-11-16T15:58:26.501Z,6.82
2022-11-16T16:00:54.481Z,6.81
2022-11-16T16:03:24.200Z,6.95
2022-11-16T16:05:51.771Z,6.88
2022-11-16T16:08:30.434Z,6.84
2022-11-16T16:11:21.420Z,6.76
2022-11-16T16:14:03.322Z,6.81
2022-11-16T16:16:39.774Z,6.77
2022-11-16T16:19:30.077Z,6.81
2022-11-16T16:21:58.556Z,6.81
2022-11-16T16:24:45.871Z,6.77
2022-11-16T16:27:25.934Z,6.71
2022-11-16T16:29:57.403Z,6.89
2022-11-16T16:32:28.615Z,6.89
2022-11-16T16:35:00.360Z,6.71
2022-11-16T16:37:29.515Z,6.72
2022-11-16T16:39:56.375Z,6.78
2022-11-16T16:42:23.381Z,6.93
2022-11-16T16:44:50.899Z,6.81
2022-11-16T16:47:20.837Z,6.85
2022-11-16T16:49:49.374Z,6.81
2022-11-16T16:52:16.705Z,6.75
2022-11-16T16:54:43.752Z,6.83
2022-11-16T16:57:15.106Z,6.82
2022-11-16T16:59:42.417Z,6.79
2022-11-16T17:02:11.531Z,6.72
2022-11-16T17:04:38.157Z,6.80
2022-11-16T17:07:04.689Z,6.84
2022-11-16T17:09:31.201Z,6.86
2022-11-16T17:11:57.722Z,6.77
2022-11-16T17:14:24.597Z,6.76
2022-11-16T17:16:52.205Z,6.76
2022-11-16T17:19:20.047Z,6.84
2022-11-16T17:21:46.782Z,6.84
2022-11-16T17:24:13.389Z,6.79
2022-11-16T17:26:40.792Z,6.77
2022-11-16T17:29:07.238Z,6.73
2022-11-16T17:31:33.747Z,6.81
2022-11-16T17:34:00.253Z,6.78
2022-11-16T17:36:27.327Z,6.82
2022-11-16T17:38:53.824Z,6.81
2022-11-16T17:41:25.548Z,6.85
2022-11-16T17:43:53.655Z,6.82
2022-11-16T17:46:22.376Z,6.82
2022-11-16T17:48:49.935Z,6.75
2022-11-16T17:51:19.405Z,6.78
2022-11-16T17:53:46.381Z,6.78
2022-11-16T17:56:15.595Z,6.68
2022-11-16T17:58:42.478Z,6.68
2022-11-16T18:01:09.136Z,6.70
2022-11-16T18:03:36.973Z,6.72
2022-11-16T18:06:13.395Z,6.75
2022-11-16T18:08:40.877Z,6.79
2022-11-16T18:11:10.395Z,6.71
2022-11-16T18:13:37.392Z,6.75
2022-11-16T18:16:18.666Z,6.80
2022-11-16T18:18:46.738Z,6.76
2022-11-16T18:21:20.332Z,6.68
2022-11-16T18:23:47.921Z,6.74
2022-11-16T18:26:17.111Z,6.78
2022-11-16T18:28:51.570Z,6.74
2022-11-16T18:31:23.681Z,6.86
2022-11-16T18:33:51.386Z,6.70
2022-11-16T18:36:19.939Z,6.72
2022-11-16T18:38:47.093Z,6.76
2022-11-16T18:41:13.680Z,6.68
2022-11-16T18:43:42.084Z,6.63
2022-11-16T18:46:09.029Z,6.65
2022-11-16T18:48:35.529Z,6.69
2022-11-16T18:51:04.278Z,6.69
2022-11-16T18:53:32.314Z,6.73
2022-11-16T18:55:59.159Z,6.65
2022-11-16T19:01:16.484Z,6.66
2022-11-16T19:03:44.116Z,6.61
2022-11-16T19:06:11.781Z,6.60
2022-11-16T19:08:41.390Z,6.70
2022-11-16T19:11:13.591Z,6.67
2022-11-16T19:13:41.435Z,6.64
2022-11-16T19:16:10.051Z,6.65
2022-11-16T19:18:37.218Z,6.64
2022-11-16T19:21:08.557Z,6.67
2022-11-16T19:23:46.431Z,6.64
2022-11-16T19:26:14.846Z,6.55
2022-11-16T19:28:47.019Z,6.68
2022-11-16T19:31:23.232Z,6.65
2022-11-16T19:34:01.958Z,6.71
2022-11-16T19:36:29.590Z,6.68
2022-11-16T19:38:56.261Z,6.60
2022-11-16T19:41:23.998Z,6.57
2022-11-16T19:43:59.802Z,6.61
2022-11-16T19:46:28.334Z,6.63
2022-11-16T19:48:56.060Z,6.62
2022-11-16T19:51:27.891Z,6.66
2022-11-16T19:53:54.978Z,6.54
2022-11-16T19:56:23.252Z,6.59
2022-11-16T19:58:50.481Z,6.59
2022-11-16T20:01:18.629Z,6.63
2022-11-16T20:03:46.285Z,6.65
2022-11-16T20:06:23.872Z,6.55
2022-11-16T20:08:52.651Z,6.59
2022-11-16T20:11:21.437Z,6.57
2022-11-16T20:13:49.132Z,6.59
2022-11-16T20:16:16.643Z,6.57
2022-11-16T20:18:43.824Z,6.47
2022-11-16T20:21:18.541Z,6.60
2022-11-16T20:23:45.547Z,6.62
2022-11-16T20:26:13.456Z,6.60
2022-11-16T20:28:42.627Z,6.64
2022-11-16T20:31:14.827Z,6.63
2022-11-16T20:33:41.762Z,6.56
2022-11-16T20:36:11.484Z,6.59
2022-11-16T20:38:39.434Z,6.52
2022-11-16T20:41:10.182Z,6.58
2022-11-16T20:43:39.197Z,6.53
2022-11-16T20:46:10.530Z,6.56
2022-11-16T20:48:38.162Z,6.54
2022-11-16T20:51:06.032Z,6.55
2022-11-16T20:53:33.382Z,6.46
2022-11-16T20:56:03.549Z,6.60
2022-11-16T20:58:31.096Z,6.57
2022-11-16T21:01:10.503Z,6.49
2022-11-16T21:03:37.398Z,6.46
2022-11-16T21:06:08.418Z,6.41
2022-11-16T21:08:36.810Z,6.48
2022-11-16T21:11:10.158Z,6.46
2022-11-16T21:13:55.428Z,6.49
2022-11-16T21:16:22.000Z,6.49
2022-11-16T21:18:48.587Z,6.46
2022-11-16T21:21:15.154Z,6.53
2022-11-16T21:23:44.928Z,6.57
2022-11-16T21:26:13.364Z,6.53
2022-11-16T21:28:40.112Z,6.47
2022-11-16T21:31:10.178Z,6.40
2022-11-16T21:33:37.420Z,6.35
2022-11-16T21:36:10.013Z,6.51
2022-11-16T21:38:37.088Z,6.43
2022-11-16T21:41:06.385Z,6.47
2022-11-16T21:43:36.033Z,6.40
2022-11-16T21:46:06.791Z,6.39
2022-11-16T21:48:34.692Z,6.33
2022-11-16T21:51:03.844Z,6.38
2022-11-16T21:53:31.057Z,6.37
2022-11-16T21:55:57.963Z,6.32
2022-11-16T21:58:25.092Z,6.33
2022-11-16T22:00:56.297Z,6.29
2022-11-16T22:03:24.641Z,6.28
2022-11-16T22:06:32.007Z,6.28
2022-11-16T22:08:58.780Z,6.33
2022-11-16T22:11:25.579Z,6.26
2022-11-16T22:13:52.169Z,6.21
2022-11-16T22:16:20.907Z,6.19
2022-11-16T22:18:47.508Z,6.20
2022-11-16T22:21:13.977Z,6.15
2022-11-16T22:23:40.822Z,6.14
2022-11-16T22:26:10.031Z,6.21
2022-11-16T22:28:37.587Z,6.14
2022-11-16T22:31:12.298Z,6.13
2022-11-16T22:33:39.462Z,6.11
2022-11-16T22:36:10.388Z,6.08
2022-11-16T22:38:37.263Z,6.09
2022-11-16T22:41:04.201Z,6.15
2022-11-16T22:43:31.622Z,6.15
2022-11-16T22:46:02.928Z,6.13
2022-11-16T22:48:35.240Z,6.14
2022-11-16T22:51:06.731Z,6.14
2022-11-16T22:53:34.645Z,6.07
2022-11-16T22:56:06.119Z,6.09
2022-11-16T22:58:32.747Z,6.12
2022-11-16T23:00:59.137Z,6.02
2022-11-16T23:03:25.627Z,6.00
2022-11-16T23:05:52.117Z,6.09
2022-11-16T23:08:19.142Z,5.98
2022-11-16T23:11:05.968Z,6.00
2022-11-16T23:13:50.736Z,6.02
2022-11-16T23:16:17.564Z,6.02
2022-11-16T23:18:44.081Z,5.98
2022-11-16T23:21:29.030Z,6.00
2022-11-16T23:24:24.195Z,5.93
2022-11-16T23:27:09.286Z,5.89
2022-11-16T23:29:35.740Z,5.93
2022-11-16T23:32:02.204Z,5.84
2022-11-16T23:34:28.684Z,5.91
2022-11-16T23:36:55.140Z,5.89
2022-11-16T23:39:21.693Z,5.86
2022-11-16T23:42:07.009Z,5.81
2022-11-16T23:44:33.540Z,5.85
2022-11-16T23:46:59.972Z,5.92
2022-11-16T23:49:26.524Z,5.83
2022-11-16T23:51:53.028Z,5.83
2022-11-16T23:54:19.844Z,5.81
2022-11-16T23:56:46.355Z,5.73
2022-11-16T23:59:12.883Z,5.83
